sensor_id;sensor_type;location;lat;lon;timestamp;pressure;altitude;pressure_sealevel;temperature;humidity
10712;BME280;5407;51.234;6.804;2023-02-04T00:02:24;102609.59;;;23.83;37.94
10712;BME280;5407;51.234;6.804;2023-02-04T00:04:51;102615.13;;;23.90;38.13
10712;BME280;5407;51.234;6.804;2023-02-04T00:07:18;102619.91;;;23.96;38.16
10712;BME280;5407;51.234;6.804;2023-02-04T00:09:45;102617.97;;;24.00;38.08
10712;BME280;5407;51.234;6.804;2023-02-04T00:12:13;102624.28;;;24.04;37.89
10712;BME280;5407;51.234;6.804;2023-02-04T00:14:40;102629.03;;;24.07;38.02
10712;BME280;5407;51.234;6.804;2023-02-04T00:17:07;102637.31;;;24.11;37.88
10712;BME280;5407;51.234;6.804;2023-02-04T00:19:35;102646.00;;;24.13;37.85
10712;BME280;5407;51.234;6.804;2023-02-04T00:22:02;102644.41;;;24.08;37.81
10712;BME280;5407;51.234;6.804;2023-02-04T00:24:29;102632.16;;;24.02;37.96
10712;BME280;5407;51.234;6.804;2023-02-04T00:26:56;102647.13;;;24.01;37.97
10712;BME280;5407;51.234;6.804;2023-02-04T00:29:25;102638.81;;;23.98;38.06
10712;BME280;5407;51.234;6.804;2023-02-04T00:31:51;102643.56;;;23.97;38.06
10712;BME280;5407;51.234;6.804;2023-02-04T00:34:19;102653.38;;;23.95;38.11
10712;BME280;5407;51.234;6.804;2023-02-04T00:36:46;102639.94;;;23.90;38.09
10712;BME280;5407;51.234;6.804;2023-02-04T00:39:13;102651.34;;;23.88;37.97
10712;BME280;5407;51.234;6.804;2023-02-04T00:41:40;102644.25;;;23.84;38.09
10712;BME280;5407;51.234;6.804;2023-02-04T00:44:07;102639.50;;;23.81;38.18
10712;BME280;5407;51.234;6.804;2023-02-04T00:46:35;102639.06;;;23.79;38.23
10712;BME280;5407;51.234;6.804;2023-02-04T00:49:03;102638.25;;;23.78;38.25
10712;BME280;5407;51.234;6.804;2023-02-04T00:51:35;102642.59;;;23.76;38.20
10712;BME280;5407;51.234;6.804;2023-02-04T00:54:04;102637.03;;;23.73;38.31
10712;BME280;5407;51.234;6.804;2023-02-04T00:56:31;102642.56;;;23.73;38.24
10712;BME280;5407;51.234;6.804;2023-02-04T00:58:58;102644.91;;;23.71;38.33
10712;BME280;5407;51.234;6.804;2023-02-04T01:01:25;102653.59;;;23.73;38.27
10712;BME280;5407;51.234;6.804;2023-02-04T01:03:53;102656.34;;;23.73;38.31
10712;BME280;5407;51.234;6.804;2023-02-04T01:06:21;102660.69;;;23.73;38.26
10712;BME280;5407;51.234;6.804;2023-02-04T01:08:49;102661.47;;;23.74;38.22
10712;BME280;5407;51.234;6.804;2023-02-04T01:11:16;102665.00;;;23.74;38.25
10712;BME280;5407;51.234;6.804;2023-02-04T01:13:43;102667.78;;;23.74;38.31
10712;BME280;5407;51.234;6.804;2023-02-04T01:16:11;102665.06;;;23.78;38.22
10712;BME280;5407;51.234;6.804;2023-02-04T01:18:38;102667.00;;;23.77;38.13
10712;BME280;5407;51.234;6.804;2023-02-04T01:21:07;102663.50;;;23.80;38.18
10712;BME280;5407;51.234;6.804;2023-02-04T01:23:34;102655.25;;;23.80;38.28
10712;BME280;5407;51.234;6.804;2023-02-04T01:26:01;102660.78;;;23.84;38.08
10712;BME280;5407;51.234;6.804;2023-02-04T01:28:28;102658.41;;;23.82;38.08
10712;BME280;5407;51.234;6.804;2023-02-04T01:30:55;102661.56;;;23.84;38.01
10712;BME280;5407;51.234;6.804;2023-02-04T01:33:22;102668.66;;;23.85;38.00
10712;BME280;5407;51.234;6.804;2023-02-04T01:35:49;102676.53;;;23.83;38.01
10712;BME280;5407;51.234;6.804;2023-02-04T01:38:17;102685.19;;;23.85;38.14
10712;BME280;5407;51.234;6.804;2023-02-04T01:40:44;102695.06;;;23.86;38.14
10712;BME280;5407;51.234;6.804;2023-02-04T01:43:11;102694.69;;;23.88;38.10
10712;BME280;5407;51.234;6.804;2023-02-04T01:45:38;102695.06;;;23.86;38.20
10712;BME280;5407;51.234;6.804;2023-02-04T01:48:06;102700.97;;;23.85;38.13
10712;BME280;5407;51.234;6.804;2023-02-04T01:50:36;102691.13;;;23.84;38.14
10712;BME280;5407;51.234;6.804;2023-02-04T01:53:03;102698.59;;;23.83;38.26
10712;BME280;5407;51.234;6.804;2023-02-04T01:55:32;102701.34;;;23.83;38.25
10712;BME280;5407;51.234;6.804;2023-02-04T01:57:59;102701.75;;;23.85;38.14
10712;BME280;5407;51.234;6.804;2023-02-04T02:00:28;102703.69;;;23.81;38.22
10712;BME280;5407;51.234;6.804;2023-02-04T02:02:56;102704.84;;;23.80;38.25
10712;BME280;5407;51.234;6.804;2023-02-04T02:05:27;102700.50;;;23.79;38.21
10712;BME280;5407;51.234;6.804;2023-02-04T02:07:59;102709.94;;;23.78;38.32
10712;BME280;5407;51.234;6.804;2023-02-04T02:10:28;102713.50;;;23.79;38.39
10712;BME280;5407;51.234;6.804;2023-02-04T02:12:57;102707.94;;;23.75;38.30
10712;BME280;5407;51.234;6.804;2023-02-04T02:15:24;102718.97;;;23.75;38.35
10712;BME280;5407;51.234;6.804;2023-02-04T02:17:52;102724.06;;;23.73;38.30
10712;BME280;5407;51.234;6.804;2023-02-04T02:20:22;102714.63;;;23.74;38.28
10712;BME280;5407;51.234;6.804;2023-02-04T02:22:57;102729.22;;;23.75;38.24
10712;BME280;5407;51.234;6.804;2023-02-04T02:25:27;102725.25;;;23.73;38.37
10712;BME280;5407;51.234;6.804;2023-02-04T02:27:54;102726.41;;;23.72;38.33
10712;BME280;5407;51.234;6.804;2023-02-04T02:30:23;102734.69;;;23.72;38.30
10712;BME280;5407;51.234;6.804;2023-02-04T02:32:50;102734.69;;;23.72;38.20
10712;BME280;5407;51.234;6.804;2023-02-04T02:35:19;102740.59;;;23.70;38.27
10712;BME280;5407;51.234;6.804;2023-02-04T02:37:46;102736.63;;;23.68;38.35
10712;BME280;5407;51.234;6.804;2023-02-04T02:40:13;102740.19;;;23.72;38.36
10712;BME280;5407;51.234;6.804;2023-02-04T02:42:43;102731.13;;;23.68;38.63
10712;BME280;5407;51.234;6.804;2023-02-04T02:45:16;102735.50;;;23.75;38.59
10712;BME280;5407;51.234;6.804;2023-02-04T02:47:44;102742.66;;;23.80;38.32
10712;BME280;5407;51.234;6.804;2023-02-04T02:50:15;102740.34;;;23.85;38.22
10712;BME280;5407;51.234;6.804;2023-02-04T02:52:42;102739.56;;;23.85;38.27
10712;BME280;5407;51.234;6.804;2023-02-04T02:55:13;102749.00;;;23.84;38.23
10712;BME280;5407;51.234;6.804;2023-02-04T02:57:43;102743.50;;;23.84;38.22
10712;BME280;5407;51.234;6.804;2023-02-04T03:00:16;102737.22;;;23.87;38.22
10712;BME280;5407;51.234;6.804;2023-02-04T03:02:44;102740.34;;;23.85;38.18
10712;BME280;5407;51.234;6.804;2023-02-04T03:05:12;102743.88;;;23.82;38.13
10712;BME280;5407;51.234;6.804;2023-02-04T03:07:40;102745.03;;;23.81;38.14
10712;BME280;5407;51.234;6.804;2023-02-04T03:10:07;102739.53;;;23.81;38.16
10712;BME280;5407;51.234;6.804;2023-02-04T03:12:36;102745.41;;;23.80;38.23
10712;BME280;5407;51.234;6.804;2023-02-04T03:15:05;102759.19;;;23.80;38.18
10712;BME280;5407;51.234;6.804;2023-02-04T03:17:32;102751.28;;;23.78;38.33
10712;BME280;5407;51.234;6.804;2023-02-04T03:20:00;102754.44;;;23.77;38.35
10712;BME280;5407;51.234;6.804;2023-02-04T03:22:28;102759.16;;;23.76;38.32
10712;BME280;5407;51.234;6.804;2023-02-04T03:24:54;102764.66;;;23.76;38.17
10712;BME280;5407;51.234;6.804;2023-02-04T03:27:23;102754.81;;;23.75;38.17
10712;BME280;5407;51.234;6.804;2023-02-04T03:29:50;102752.03;;;23.75;38.21
10712;BME280;5407;51.234;6.804;2023-02-04T03:32:18;102754.38;;;23.73;38.21
10712;BME280;5407;51.234;6.804;2023-02-04T03:34:45;102758.72;;;23.71;38.27
10712;BME280;5407;51.234;6.804;2023-02-04T03:37:12;102767.00;;;23.74;38.21
10712;BME280;5407;51.234;6.804;2023-02-04T03:39:38;102766.59;;;23.73;38.30
10712;BME280;5407;51.234;6.804;2023-02-04T03:42:06;102775.66;;;23.73;38.21
10712;BME280;5407;51.234;6.804;2023-02-04T03:44:33;102779.59;;;23.72;38.36
10712;BME280;5407;51.234;6.804;2023-02-04T03:46:59;102775.25;;;23.71;38.27
10712;BME280;5407;51.234;6.804;2023-02-04T03:49:27;102774.03;;;23.69;38.27
10712;BME280;5407;51.234;6.804;2023-02-04T03:51:56;102781.13;;;23.70;38.25
10712;BME280;5407;51.234;6.804;2023-02-04T03:54:23;102778.72;;;23.65;38.35
10712;BME280;5407;51.234;6.804;2023-02-04T03:56:50;102780.69;;;23.64;38.31
10712;BME280;5407;51.234;6.804;2023-02-04T03:59:17;102775.16;;;23.64;38.28
10712;BME280;5407;51.234;6.804;2023-02-04T04:01:44;102779.91;;;23.64;38.35
10712;BME280;5407;51.234;6.804;2023-02-04T04:04:11;102769.63;;;23.61;38.32
10712;BME280;5407;51.234;6.804;2023-02-04T04:06:39;102773.16;;;23.58;38.24
10712;BME280;5407;51.234;6.804;2023-02-04T04:09:06;102772.34;;;23.57;38.36
10712;BME280;5407;51.234;6.804;2023-02-04T04:11:33;102774.31;;;23.57;38.36
10712;BME280;5407;51.234;6.804;2023-02-04T04:14:00;102777.84;;;23.54;38.57
10712;BME280;5407;51.234;6.804;2023-02-04T04:16:27;102770.75;;;23.53;38.44
10712;BME280;5407;51.234;6.804;2023-02-04T04:18:54;102767.56;;;23.51;38.35
10712;BME280;5407;51.234;6.804;2023-02-04T04:21:20;102780.53;;;23.47;38.47
10712;BME280;5407;51.234;6.804;2023-02-04T04:23:49;102784.47;;;23.46;38.51
10712;BME280;5407;51.234;6.804;2023-02-04T04:26:16;102787.22;;;23.46;38.57
10712;BME280;5407;51.234;6.804;2023-02-04T04:28:43;102792.31;;;23.44;38.57
10712;BME280;5407;51.234;6.804;2023-02-04T04:31:09;102793.44;;;23.43;38.55
10712;BME280;5407;51.234;6.804;2023-02-04T04:33:36;102798.19;;;23.42;38.64
10712;BME280;5407;51.234;6.804;2023-02-04T04:36:05;102799.75;;;23.43;38.61
10712;BME280;5407;51.234;6.804;2023-02-04T04:38:32;102816.28;;;23.43;38.62
10712;BME280;5407;51.234;6.804;2023-02-04T04:41:00;102815.94;;;23.45;38.64
10712;BME280;5407;51.234;6.804;2023-02-04T04:43:27;102814.34;;;23.44;38.64
10712;BME280;5407;51.234;6.804;2023-02-04T04:45:54;102812.38;;;23.44;38.71
10712;BME280;5407;51.234;6.804;2023-02-04T04:48:21;102804.47;;;23.43;38.72
10712;BME280;5407;51.234;6.804;2023-02-04T04:50:49;102813.13;;;23.41;38.72
10712;BME280;5407;51.234;6.804;2023-02-04T04:53:16;102823.75;;;23.43;38.64
10712;BME280;5407;51.234;6.804;2023-02-04T04:55:43;102816.66;;;23.42;38.68
10712;BME280;5407;51.234;6.804;2023-02-04T04:58:11;102817.09;;;23.44;38.70
10712;BME280;5407;51.234;6.804;2023-02-04T05:00:38;102821.41;;;23.41;38.60
10712;BME280;5407;51.234;6.804;2023-02-04T05:03:05;102822.56;;;23.40;38.77
10712;BME280;5407;51.234;6.804;2023-02-04T05:05:32;102821.75;;;23.40;38.76
10712;BME280;5407;51.234;6.804;2023-02-04T05:08:04;102824.94;;;23.42;38.71
10712;BME280;5407;51.234;6.804;2023-02-04T05:10:31;102820.59;;;23.41;38.74
10712;BME280;5407;51.234;6.804;2023-02-04T05:12:58;102820.59;;;23.41;38.68
10712;BME280;5407;51.234;6.804;2023-02-04T05:15:26;102828.84;;;23.41;38.73
10712;BME280;5407;51.234;6.804;2023-02-04T05:17:53;102842.63;;;23.41;38.74
10712;BME280;5407;51.234;6.804;2023-02-04T05:20:20;102837.50;;;23.39;38.67
10712;BME280;5407;51.234;6.804;2023-02-04T05:22:46;102845.38;;;23.41;38.63
10712;BME280;5407;51.234;6.804;2023-02-04T05:25:13;102849.31;;;23.40;38.73
10712;BME280;5407;51.234;6.804;2023-02-04T05:27:41;102853.22;;;23.39;38.70
10712;BME280;5407;51.234;6.804;2023-02-04T05:30:09;102852.44;;;23.38;38.71
10712;BME280;5407;51.234;6.804;2023-02-04T05:32:38;102857.16;;;23.38;38.67
10712;BME280;5407;51.234;6.804;2023-02-04T05:35:06;102858.75;;;23.39;38.77
10712;BME280;5407;51.234;6.804;2023-02-04T05:37:33;102854.81;;;23.40;38.64
10712;BME280;5407;51.234;6.804;2023-02-04T05:40:00;102846.94;;;23.38;38.69
10712;BME280;5407;51.234;6.804;2023-02-04T05:42:27;102848.47;;;23.36;38.68
10712;BME280;5407;51.234;6.804;2023-02-04T05:44:53;102861.06;;;23.37;38.73
10712;BME280;5407;51.234;6.804;2023-02-04T05:47:20;102868.97;;;23.38;38.63
10712;BME280;5407;51.234;6.804;2023-02-04T05:49:49;102867.00;;;23.39;38.58
10712;BME280;5407;51.234;6.804;2023-02-04T05:52:15;102872.91;;;23.37;38.67
10712;BME280;5407;51.234;6.804;2023-02-04T05:54:42;102874.84;;;23.37;38.58
10712;BME280;5407;51.234;6.804;2023-02-04T05:57:09;102872.06;;;23.33;38.64
10712;BME280;5407;51.234;6.804;2023-02-04T05:59:36;102872.84;;;23.34;38.63
10712;BME280;5407;51.234;6.804;2023-02-04T06:02:03;102881.88;;;23.31;38.73
10712;BME280;5407;51.234;6.804;2023-02-04T06:04:29;102885.78;;;23.30;38.61
10712;BME280;5407;51.234;6.804;2023-02-04T06:06:58;102883.44;;;23.32;38.60
10712;BME280;5407;51.234;6.804;2023-02-04T06:09:25;102885.44;;;23.31;38.71
10712;BME280;5407;51.234;6.804;2023-02-04T06:11:52;102883.88;;;23.34;38.62
10712;BME280;5407;51.234;6.804;2023-02-04T06:14:18;102893.31;;;23.33;38.59
10712;BME280;5407;51.234;6.804;2023-02-04T06:16:45;102898.81;;;23.33;38.62
10712;BME280;5407;51.234;6.804;2023-02-04T06:19:12;102898.03;;;23.32;38.60
10712;BME280;5407;51.234;6.804;2023-02-04T06:24:07;102905.91;;;23.34;38.55
10712;BME280;5407;51.234;6.804;2023-02-04T06:26:34;102904.00;;;23.38;38.52
10712;BME280;5407;51.234;6.804;2023-02-04T06:29:01;102908.31;;;23.39;38.54
10712;BME280;5407;51.234;6.804;2023-02-04T06:31:28;102905.56;;;23.39;38.63
10712;BME280;5407;51.234;6.804;2023-02-04T06:33:55;102911.09;;;23.39;38.54
10712;BME280;5407;51.234;6.804;2023-02-04T06:36:21;102906.38;;;23.39;38.58
10712;BME280;5407;51.234;6.804;2023-02-04T06:38:48;102911.91;;;23.39;38.64
10712;BME280;5407;51.234;6.804;2023-02-04T06:41:16;102911.50;;;23.41;38.57
10712;BME280;5407;51.234;6.804;2023-02-04T06:43:43;102914.25;;;23.41;38.53
10712;BME280;5407;51.234;6.804;2023-02-04T06:46:10;102919.75;;;23.37;38.63
10712;BME280;5407;51.234;6.804;2023-02-04T06:48:37;102919.34;;;23.39;38.63
10712;BME280;5407;51.234;6.804;2023-02-04T06:51:04;102919.34;;;23.39;38.56
10712;BME280;5407;51.234;6.804;2023-02-04T06:53:31;102920.50;;;23.38;38.55
10712;BME280;5407;51.234;6.804;2023-02-04T06:55:58;102920.94;;;23.40;38.51
10712;BME280;5407;51.234;6.804;2023-02-04T06:58:26;102915.00;;;23.38;38.60
10712;BME280;5407;51.234;6.804;2023-02-04T07:00:53;102926.41;;;23.36;38.59
10712;BME280;5407;51.234;6.804;2023-02-04T07:03:20;102919.31;;;23.35;38.57
10712;BME280;5407;51.234;6.804;2023-02-04T07:05:46;102922.06;;;23.35;38.56
10712;BME280;5407;51.234;6.804;2023-02-04T07:08:13;102916.94;;;23.34;38.64
10712;BME280;5407;51.234;6.804;2023-02-04T07:10:40;102929.09;;;23.29;38.75
10712;BME280;5407;51.234;6.804;2023-02-04T07:13:07;102927.09;;;23.30;38.69
10712;BME280;5407;51.234;6.804;2023-02-04T07:15:35;102929.44;;;23.28;38.60
10712;BME280;5407;51.234;6.804;2023-02-04T07:18:02;102930.25;;;23.28;38.71
10712;BME280;5407;51.234;6.804;2023-02-04T07:20:29;102930.19;;;23.25;38.70
10712;BME280;5407;51.234;6.804;2023-02-04T07:22:56;102932.94;;;23.25;38.68
10712;BME280;5407;51.234;6.804;2023-02-04T07:25:23;102939.59;;;23.20;38.82
10712;BME280;5407;51.234;6.804;2023-02-04T07:27:49;102937.56;;;23.17;38.85
10712;BME280;5407;51.234;6.804;2023-02-04T07:30:16;102938.84;;;23.23;38.90
10712;BME280;5407;51.234;6.804;2023-02-04T07:32:45;102950.31;;;23.29;39.09
10712;BME280;5407;51.234;6.804;2023-02-04T07:35:11;102957.00;;;23.28;38.79
10712;BME280;5407;51.234;6.804;2023-02-04T07:37:38;102958.56;;;23.29;38.82
10712;BME280;5407;51.234;6.804;2023-02-04T07:40:06;102957.78;;;23.28;38.86
10712;BME280;5407;51.234;6.804;2023-02-04T07:42:33;102965.34;;;23.35;39.13
10712;BME280;5407;51.234;6.804;2023-02-04T07:45:08;102964.59;;;23.38;39.10
10712;BME280;5407;51.234;6.804;2023-02-04T07:47:35;102965.44;;;23.42;39.07
10712;BME280;5407;51.234;6.804;2023-02-04T07:50:04;102967.09;;;23.46;38.86
10712;BME280;5407;51.234;6.804;2023-02-04T07:52:32;102969.16;;;23.53;38.91
10712;BME280;5407;51.234;6.804;2023-02-04T07:54:59;102966.00;;;23.54;38.88
10712;BME280;5407;51.234;6.804;2023-02-04T07:57:26;102979.44;;;23.59;38.76
10712;BME280;5407;51.234;6.804;2023-02-04T07:59:53;102985.03;;;23.63;38.70
10712;BME280;5407;51.234;6.804;2023-02-04T08:02:20;102976.00;;;23.66;38.61
10712;BME280;5407;51.234;6.804;2023-02-04T08:04:47;102986.69;;;23.71;38.42
10712;BME280;5407;51.234;6.804;2023-02-04T08:07:15;102986.69;;;23.71;38.36
10712;BME280;5407;51.234;6.804;2023-02-04T08:09:42;102990.63;;;23.70;38.59
10712;BME280;5407;51.234;6.804;2023-02-04T08:12:09;102990.63;;;23.70;38.58
10712;BME280;5407;51.234;6.804;2023-02-04T08:14:36;102993.69;;;23.65;38.71
10712;BME280;5407;51.234;6.804;2023-02-04T08:17:03;103002.38;;;23.67;38.62
10712;BME280;5407;51.234;6.804;2023-02-04T08:19:30;103001.97;;;23.65;38.53
10712;BME280;5407;51.234;6.804;2023-02-04T08:21:57;102999.16;;;23.61;38.55
10712;BME280;5407;51.234;6.804;2023-02-04T08:24:25;103009.41;;;23.61;38.41
10712;BME280;5407;51.234;6.804;2023-02-04T08:26:52;103011.75;;;23.59;38.55
10712;BME280;5407;51.234;6.804;2023-02-04T08:29:19;103022.75;;;23.59;38.52
10712;BME280;5407;51.234;6.804;2023-02-04T08:31:45;103020.75;;;23.56;38.57
10712;BME280;5407;51.234;6.804;2023-02-04T08:34:13;103029.38;;;23.54;38.63
10712;BME280;5407;51.234;6.804;2023-02-04T08:36:40;103029.38;;;23.54;38.53
10712;BME280;5407;51.234;6.804;2023-02-04T08:39:08;103030.63;;;23.57;38.65
10712;BME280;5407;51.234;6.804;2023-02-04T08:41:38;103029.78;;;23.53;38.64
10712;BME280;5407;51.234;6.804;2023-02-04T08:44:05;103025.78;;;23.50;38.61
10712;BME280;5407;51.234;6.804;2023-02-04T08:46:31;103027.75;;;23.50;38.61
10712;BME280;5407;51.234;6.804;2023-02-04T08:48:58;103039.94;;;23.49;38.68
10712;BME280;5407;51.234;6.804;2023-02-04T08:51:26;103043.03;;;23.44;38.67
10712;BME280;5407;51.234;6.804;2023-02-04T08:53:53;103043.03;;;23.44;38.73
10712;BME280;5407;51.234;6.804;2023-02-04T08:56:19;103046.16;;;23.42;38.70
10712;BME280;5407;51.234;6.804;2023-02-04T08:58:48;103046.16;;;23.42;38.77
10712;BME280;5407;51.234;6.804;2023-02-04T09:01:15;103047.72;;;23.43;38.71
10712;BME280;5407;51.234;6.804;2023-02-04T09:03:42;103051.22;;;23.40;38.76
10712;BME280;5407;51.234;6.804;2023-02-04T09:06:09;103054.78;;;23.41;38.82
10712;BME280;5407;51.234;6.804;2023-02-04T09:08:36;103054.78;;;23.41;38.82
10712;BME280;5407;51.234;6.804;2023-02-04T09:11:03;103057.91;;;23.39;38.81
10712;BME280;5407;51.234;6.804;2023-02-04T09:13:30;103069.28;;;23.38;38.69
10712;BME280;5407;51.234;6.804;2023-02-04T09:15:59;103063.78;;;23.38;38.88
10712;BME280;5407;51.234;6.804;2023-02-04T09:18:26;103068.88;;;23.36;38.90
10712;BME280;5407;51.234;6.804;2023-02-04T09:20:55;103064.53;;;23.35;38.90
10712;BME280;5407;51.234;6.804;2023-02-04T09:23:21;103067.28;;;23.35;38.82
10712;BME280;5407;51.234;6.804;2023-02-04T09:25:49;103066.53;;;23.38;38.73
10712;BME280;5407;51.234;6.804;2023-02-04T09:28:16;103061.03;;;23.38;38.74
10712;BME280;5407;51.234;6.804;2023-02-04T09:30:44;103063.78;;;23.38;38.79
10712;BME280;5407;51.234;6.804;2023-02-04T09:33:14;103072.84;;;23.38;38.75
10712;BME280;5407;51.234;6.804;2023-02-04T09:35:42;103067.38;;;23.42;38.68
10712;BME280;5407;51.234;6.804;2023-02-04T09:38:08;103064.19;;;23.40;38.80
10712;BME280;5407;51.234;6.804;2023-02-04T09:40:40;103072.19;;;23.45;38.70
10712;BME280;5407;51.234;6.804;2023-02-04T09:43:11;103069.78;;;23.43;38.63
10712;BME280;5407;51.234;6.804;2023-02-04T09:45:39;103068.97;;;23.43;38.67
10712;BME280;5407;51.234;6.804;2023-02-04T09:48:08;103074.53;;;23.46;38.67
10712;BME280;5407;51.234;6.804;2023-02-04T09:50:38;103077.28;;;23.46;38.56
10712;BME280;5407;51.234;6.804;2023-02-04T09:53:06;103082.03;;;23.46;38.65
10712;BME280;5407;51.234;6.804;2023-02-04T09:55:36;103083.63;;;23.47;38.56
10712;BME280;5407;51.234;6.804;2023-02-04T09:58:07;103089.13;;;23.47;38.59
10712;BME280;5407;51.234;6.804;2023-02-04T10:00:37;103100.50;;;23.45;38.57
10712;BME280;5407;51.234;6.804;2023-02-04T10:03:12;103094.63;;;23.47;38.64
10712;BME280;5407;51.234;6.804;2023-02-04T10:05:42;103100.16;;;23.47;38.60
10712;BME280;5407;51.234;6.804;2023-02-04T10:08:13;103105.28;;;23.48;38.58
10712;BME280;5407;51.234;6.804;2023-02-04T10:10:41;103102.16;;;23.50;38.57
10712;BME280;5407;51.234;6.804;2023-02-04T10:13:13;103102.16;;;23.50;38.58
10712;BME280;5407;51.234;6.804;2023-02-04T10:15:42;103104.50;;;23.48;38.60
10712;BME280;5407;51.234;6.804;2023-02-04T10:18:11;103105.28;;;23.48;38.60
10712;BME280;5407;51.234;6.804;2023-02-04T10:20:43;103091.06;;;23.46;38.61
10712;BME280;5407;51.234;6.804;2023-02-04T10:23:10;103103.69;;;23.47;38.52
10712;BME280;5407;51.234;6.804;2023-02-04T10:25:37;103107.59;;;23.46;38.57
10712;BME280;5407;51.234;6.804;2023-02-04T10:28:04;103106.03;;;23.45;38.65
10712;BME280;5407;51.234;6.804;2023-02-04T10:30:37;103104.84;;;23.46;38.56
10712;BME280;5407;51.234;6.804;2023-02-04T10:33:13;103108.41;;;23.47;38.59
10712;BME280;5407;51.234;6.804;2023-02-04T10:35:47;103099.34;;;23.46;38.59
10712;BME280;5407;51.234;6.804;2023-02-04T10:38:15;103104.78;;;23.43;38.70
10712;BME280;5407;51.234;6.804;2023-02-04T10:40:44;103107.53;;;23.43;38.66
10712;BME280;5407;51.234;6.804;2023-02-04T10:43:14;103102.84;;;23.43;38.71
10712;BME280;5407;51.234;6.804;2023-02-04T10:45:44;103104.44;;;23.44;38.69
10712;BME280;5407;51.234;6.804;2023-02-04T10:48:16;103109.16;;;23.44;38.62
10712;BME280;5407;51.234;6.804;2023-02-04T10:50:45;103113.06;;;23.43;38.69
10712;BME280;5407;51.234;6.804;2023-02-04T10:53:14;103108.78;;;23.45;38.71
10712;BME280;5407;51.234;6.804;2023-02-04T10:55:59;103105.94;;;23.42;38.80
10712;BME280;5407;51.234;6.804;2023-02-04T10:58:28;103106.41;;;23.44;38.82
10712;BME280;5407;51.234;6.804;2023-02-04T11:00:55;103102.09;;;23.46;38.63
10712;BME280;5407;51.234;6.804;2023-02-04T11:03:23;103106.41;;;23.44;38.85
10712;BME280;5407;51.234;6.804;2023-02-04T11:05:55;103099.72;;;23.45;38.80
10712;BME280;5407;51.234;6.804;2023-02-04T11:08:24;103106.50;;;23.51;38.63
10712;BME280;5407;51.234;6.804;2023-02-04T11:10:55;103103.84;;;23.58;38.74
10712;BME280;5407;51.234;6.804;2023-02-04T11:13:25;103103.03;;;23.57;39.17
10712;BME280;5407;51.234;6.804;2023-02-04T11:16:09;103105.38;;;23.55;39.11
10712;BME280;5407;51.234;6.804;2023-02-04T11:18:45;103111.63;;;23.52;39.16
10712;BME280;5407;51.234;6.804;2023-02-04T11:21:24;103105.38;;;23.55;39.09
10712;BME280;5407;51.234;6.804;2023-02-04T11:24:03;103103.84;;;23.58;38.86
10712;BME280;5407;51.234;6.804;2023-02-04T11:26:34;103099.88;;;23.55;38.86
10712;BME280;5407;51.234;6.804;2023-02-04T11:29:21;103102.28;;;23.57;38.80
10712;BME280;5407;51.234;6.804;2023-02-04T11:31:59;103104.59;;;23.55;38.86
10712;BME280;5407;51.234;6.804;2023-02-04T11:34:45;103105.81;;;23.57;38.75
10712;BME280;5407;51.234;6.804;2023-02-04T11:37:27;103102.63;;;23.55;38.89
10712;BME280;5407;51.234;6.804;2023-02-04T11:39:59;103100.69;;;23.56;38.72
10712;BME280;5407;51.234;6.804;2023-02-04T11:42:30;103108.19;;;23.59;38.91
10712;BME280;5407;51.234;6.804;2023-02-04T11:44:59;103107.97;;;23.71;38.87
10712;BME280;5407;51.234;6.804;2023-02-04T11:47:33;103111.16;;;23.73;38.75
10712;BME280;5407;51.234;6.804;2023-02-04T11:50:02;103111.16;;;23.73;38.81
10712;BME280;5407;51.234;6.804;2023-02-04T11:52:34;103110.31;;;23.69;38.79
10712;BME280;5407;51.234;6.804;2023-02-04T11:55:01;103116.66;;;23.73;38.69
10712;BME280;5407;51.234;6.804;2023-02-04T11:57:28;103107.34;;;23.80;38.83
10712;BME280;5407;51.234;6.804;2023-02-04T11:59:55;103113.72;;;23.84;38.95
10712;BME280;5407;51.234;6.804;2023-02-04T12:02:23;103113.88;;;23.95;38.80
10712;BME280;5407;51.234;6.804;2023-02-04T12:07:27;103110.88;;;24.07;38.67
10712;BME280;5407;51.234;6.804;2023-02-04T12:09:56;103117.22;;;24.11;38.53
10712;BME280;5407;51.234;6.804;2023-02-04T12:12:27;103121.22;;;24.13;38.60
10712;BME280;5407;51.234;6.804;2023-02-04T12:15:01;103110.59;;;24.15;38.54
10712;BME280;5407;51.234;6.804;2023-02-04T12:17:29;103105.81;;;24.12;38.40
10712;BME280;5407;51.234;6.804;2023-02-04T12:19:56;103108.59;;;24.12;38.18
10712;BME280;5407;51.234;6.804;2023-02-04T12:22:23;103110.09;;;24.06;38.28
10712;BME280;5407;51.234;6.804;2023-02-04T12:24:49;103116.28;;;24.00;38.27
10712;BME280;5407;51.234;6.804;2023-02-04T12:27:18;103120.22;;;23.99;38.33
10712;BME280;5407;51.234;6.804;2023-02-04T12:29:46;103114.69;;;23.95;38.35
10712;BME280;5407;51.234;6.804;2023-02-04T12:32:13;103115.44;;;23.92;38.38
10712;BME280;5407;51.234;6.804;2023-02-04T12:34:40;103109.91;;;23.92;38.33
10712;BME280;5407;51.234;6.804;2023-02-04T12:37:07;103112.59;;;23.89;38.56
10712;BME280;5407;51.234;6.804;2023-02-04T12:39:34;103109.03;;;23.88;38.57
10712;BME280;5407;51.234;6.804;2023-02-04T12:42:00;103117.75;;;23.90;38.54
10712;BME280;5407;51.234;6.804;2023-02-04T12:44:30;103125.31;;;23.97;38.35
10712;BME280;5407;51.234;6.804;2023-02-04T12:46:57;103121.03;;;23.99;38.44
10712;BME280;5407;51.234;6.804;2023-02-04T12:49:24;103117.94;;;24.04;38.46
10712;BME280;5407;51.234;6.804;2023-02-04T12:51:51;103117.19;;;24.07;38.41
10712;BME280;5407;51.234;6.804;2023-02-04T12:54:18;103112.47;;;24.08;38.34
10712;BME280;5407;51.234;6.804;2023-02-04T12:56:45;103113.25;;;24.08;38.30
10712;BME280;5407;51.234;6.804;2023-02-04T12:59:13;103111.69;;;24.11;38.17
10712;BME280;5407;51.234;6.804;2023-02-04T13:01:42;103117.22;;;24.11;38.26
10712;BME280;5407;51.234;6.804;2023-02-04T13:04:08;103110.59;;;24.15;38.03
10712;BME280;5407;51.234;6.804;2023-02-04T13:06:35;103110.22;;;24.17;38.11
10712;BME280;5407;51.234;6.804;2023-02-04T13:09:02;103110.94;;;24.10;38.21
10712;BME280;5407;51.234;6.804;2023-02-04T13:11:29;103111.69;;;24.07;38.33